<?xml version="1.0" encoding="UTF-8" standalone="no" ?>
<gpx xmlns="http://www.topografix.com/GPX/1/1" xmlns:xsi="http://www.w3.org/2001/XMLSchema-instance" xsi:schemaLocation="http://www.topografix.com/GPX/1/1 http://www.topografix.com/GPX/1/1/gpx.xsd" version="1.1" creator="VisuGPX - https://www.visugpx.com">
  <metadata>
    <name>ChapelleE_BoucleNordOuest_12.5km</name>
    <desc><![CDATA[gnerando idor:10579130]]></desc>
  </metadata>
  <trk>
    <name><![CDATA[Gergaudière_Treillières-10577933]]></name>
    <extensions>
      <line xmlns="http://www.topografix.com/GPX/gpx_style/0/2">
        <color>00FF00</color>
        <width>4</width>
      </line>
    </extensions>
    <trkseg>
      <trkpt lat="47.28968" lon="-1.58588">
        <ele>41</ele>
        <time>2023-11-03T09:02:14Z</time>
      </trkpt>
      <trkpt lat="47.28781" lon="-1.59285">
        <ele>51</ele>
        <time>2023-11-03T09:13:32Z</time>
      </trkpt>
      <trkpt lat="47.28746" lon="-1.59602">
        <ele>52</ele>
        <time>2023-11-03T09:18:23Z</time>
      </trkpt>
      <trkpt lat="47.2912" lon="-1.59714">
        <ele>56</ele>
        <time>2023-11-03T09:26:52Z</time>
      </trkpt>
      <trkpt lat="47.29563" lon="-1.5975">
        <ele>58</ele>
        <time>2023-11-03T09:36:45Z</time>
      </trkpt>
      <trkpt lat="47.30148" lon="-1.60336">
        <ele>62</ele>
        <time>2023-11-03T09:52:28Z</time>
      </trkpt>
      <trkpt lat="47.29992" lon="-1.60428">
        <ele>64</ele>
        <time>2023-11-03T09:56:13Z</time>
      </trkpt>
      <trkpt lat="47.303" lon="-1.60862">
        <ele>59</ele>
        <time>2023-11-03T10:05:41Z</time>
      </trkpt>
      <trkpt lat="47.30508" lon="-1.60847">
        <ele>60</ele>
        <time>2023-11-03T10:10:19Z</time>
      </trkpt>
      <trkpt lat="47.3075" lon="-1.60724">
        <ele>48</ele>
        <time>2023-11-03T10:16:00Z</time>
      </trkpt>
      <trkpt lat="47.30809" lon="-1.60852">
        <ele>41</ele>
        <time>2023-11-03T10:18:21Z</time>
      </trkpt>
      <trkpt lat="47.31563" lon="-1.60689">
        <ele>20</ele>
        <time>2023-11-03T10:35:17Z</time>
      </trkpt>
      <trkpt lat="47.31401" lon="-1.60428">
        <ele>31</ele>
        <time>2023-11-03T10:40:38Z</time>
      </trkpt>
      <trkpt lat="47.312" lon="-1.60449">
        <ele>35</ele>
        <time>2023-11-03T10:45:07Z</time>
      </trkpt>
      <trkpt lat="47.31069" lon="-1.60132">
        <ele>41</ele>
        <time>2023-11-03T10:50:42Z</time>
      </trkpt>
      <trkpt lat="47.31373" lon="-1.59949">
        <ele>20</ele>
        <time>2023-11-03T10:58:01Z</time>
      </trkpt>
      <trkpt lat="47.3146" lon="-1.60005">
        <ele>21</ele>
        <time>2023-11-03T11:00:07Z</time>
      </trkpt>
      <trkpt lat="47.31463" lon="-1.60122">
        <ele>22</ele>
        <time>2023-11-03T11:01:53Z</time>
      </trkpt>
      <trkpt lat="47.31539" lon="-1.60102">
        <ele>32</ele>
        <time>2023-11-03T11:03:36Z</time>
      </trkpt>
      <trkpt lat="47.31491" lon="-1.59872">
        <ele>23</ele>
        <time>2023-11-03T11:07:14Z</time>
      </trkpt>
      <trkpt lat="47.31584" lon="-1.59847">
        <ele>35</ele>
        <time>2023-11-03T11:09:20Z</time>
      </trkpt>
      <trkpt lat="47.3166" lon="-1.60056">
        <ele>40</ele>
        <time>2023-11-03T11:12:55Z</time>
      </trkpt>
      <trkpt lat="47.3193" lon="-1.59949">
        <ele>45</ele>
        <time>2023-11-03T11:19:08Z</time>
      </trkpt>
      <trkpt lat="47.32124" lon="-1.6">
        <ele>48</ele>
        <time>2023-11-03T11:23:31Z</time>
      </trkpt>
      <trkpt lat="47.32072" lon="-1.59714">
        <ele>42</ele>
        <time>2023-11-03T11:27:59Z</time>
      </trkpt>
      <trkpt lat="47.32155" lon="-1.59387">
        <ele>39</ele>
        <time>2023-11-03T11:33:14Z</time>
      </trkpt>
      <trkpt lat="47.32297" lon="-1.59469">
        <ele>40</ele>
        <time>2023-11-03T11:36:38Z</time>
      </trkpt>
      <trkpt lat="47.32677" lon="-1.59591">
        <ele>45</ele>
        <time>2023-11-03T11:45:17Z</time>
      </trkpt>
      <trkpt lat="47.32899" lon="-1.59285">
        <ele>47</ele>
        <time>2023-11-03T11:52:02Z</time>
      </trkpt>
    </trkseg>
  </trk>
</gpx>